Elk River, MN (55330)

1:48 PM CDT on August 29, 2014 (GMT -0500)
Top Of The World Park Trail | Change Station
CLOSE
Current Station
Personal Weather Station
Location: Elk River, MN
Elevation: 991 ft
Nearby Weather Stations

Elev 991 ft 45.33 °N, 93.59 °W | Updated 30 seconds ago

Overcast
Overcast
67.5 °F
Feels Like 67.5 °F
N
0.0
Wind Variable Wind from NW
Gusts 0.0 mph

Today
High -- | Low -- °F
--% Chance of Precip.
Yesterday
High -- | Low -- °F
Precip. -- in
6:32 AM 7:57 PM
Waxing Crescent, 16% visible
Pressure 29.76 in
Visibility 10.0 miles
Clouds Scattered Clouds 700 ft
Scattered Clouds 1800 ft
Scattered Clouds 3300 ft
Dew Point 67 °F
Humidity 99%
Rainfall 0.68 in
Snow Depth Not available.
UV 7 out of 12
Pollen 3.30 out of 12
Ozone Good
PM2.5 Good
Flu Activity Not available.
METAR KPNM 291834Z AUTO 13004KT 10SM -VCTSRA SCT007 SCT018 SCT033 21/19 A2976 RMK AO2 P0003 LTG DSNT SE AND W

More Conditions Fewer Conditions

Pressure 29.76 in
Visibility 10.0 miles
Clouds Scattered Clouds 700 ft
Scattered Clouds 1800 ft
Scattered Clouds 3300 ft
Dew Point 67 °F
Humidity 99%
Rainfall 0.68 in
Snow Depth Not available.
UV 7 out of 12
Pollen 3.30 out of 12
Ozone Good
PM2.5 Good
Flu Activity Not available.
METAR KPNM 291834Z AUTO 13004KT 10SM -VCTSRA SCT007 SCT018 SCT033 21/19 A2976 RMK AO2 P0003 LTG DSNT SE AND W

More Conditions Fewer Conditions

10-Day Weather Forecast

Almanac

Astronomy

Aug. 29, 2014 Rise Set
Actual Time 6:32 AM CDT 7:57 PM CDT
Civil Twilight 6:01 AM CDT 8:27 PM CDT
Nautical Twilight 5:24 AM CDT 9:04 PM CDT
Astronomical Twilight 4:44 AM CDT 9:44 PM CDT
Moon 10:35 AM CDT 9:41 PM CDT
Length of Visible Light 14h 26m
Length of Day
13h 24m
Tomorrow will be 3m 2s shorter.
Waxing Crescent, 16% of the Moon is Illuminated
Today
Waxing Crescent
Sep 2
First Quarter
Sep 8
Full
Sep 15
Last Quarter
Sep 24
New

Today's Extremes

State Highs State Lows

Community

WunderPhotos

Upload Photos

1,748,314 photos uploaded!

Nearby

Air Quality

  Air Quality AQ Index Pollutant
Yesterday Good
OZONE
Yesterday Good
PM2.5
Current Good
OZONE
Current Good
PM2.5
Friday Good
OZONE
Friday Good
PM2.5
Saturday Good
OZONE
Saturday Good
PM2.5
Sunday Moderate
PM2.5
Sunday Good
OZONE
Monday Good
OZONE
Monday Good
PM2.5
Tuesday Good
OZONE
Tuesday Good
PM2.5
Wednesday Good
OZONE
Wednesday Good
PM2.5

Snow Depth

Station Depth Elevation
No new snow has been reported.

Earthquake Activity

City Distance Mag. Time & Date
No recent earthquake activity has been reported nearby.
Minimum magnitude displayed is 2.5.

Coastal Water Temperatures

Place Temperature
No Stations Reporting

Nearby Weather Stations